createdAt,value
2019-05-06T00:00:26.292Z,51.30
2019-05-06T00:02:55.952Z,51.20
2019-05-06T00:05:25.793Z,51.20
2019-05-06T00:07:55.747Z,51.20
2019-05-06T00:10:30.116Z,51.10
2019-05-06T00:12:59.902Z,51.10
2019-05-06T00:15:29.773Z,50.90
2019-05-06T00:17:59.588Z,50.90
2019-05-06T00:20:29.299Z,51.30
2019-05-06T00:23:07.426Z,50.80
2019-05-06T00:25:47.189Z,50.80
2019-05-06T00:28:47.871Z,50.80
2019-05-06T00:31:19.322Z,50.70
2019-05-06T00:33:48.979Z,50.70
2019-05-06T00:36:18.652Z,50.60
2019-05-06T00:38:53.803Z,50.70
2019-05-06T00:41:27.223Z,50.40
2019-05-06T00:43:56.897Z,50.50
2019-05-06T00:46:26.539Z,50.40
2019-05-06T00:48:56.217Z,50.30
2019-05-06T00:51:25.892Z,50.30
2019-05-06T00:54:07.121Z,50.30
2019-05-06T00:56:36.782Z,50.20
2019-05-06T00:59:06.419Z,50.20
2019-05-06T01:01:36.157Z,50.10
2019-05-06T01:04:05.821Z,50.10
2019-05-06T01:06:35.521Z,49.90
2019-05-06T01:09:08.402Z,49.80
2019-05-06T01:11:38.117Z,49.80
2019-05-06T01:14:15.790Z,49.80
2019-05-06T01:16:45.530Z,49.80
2019-05-06T01:19:15.161Z,49.80
2019-05-06T01:21:44.897Z,49.60
2019-05-06T01:24:14.805Z,49.50
2019-05-06T01:26:44.645Z,49.50
2019-05-06T01:29:14.656Z,49.60
2019-05-06T01:31:46.094Z,49.50
2019-05-06T01:34:15.671Z,49.40
2019-05-06T01:36:45.453Z,49.40
2019-05-06T01:39:26.701Z,49.30
2019-05-06T01:42:04.409Z,49.30
2019-05-06T01:44:34.281Z,49.20
2019-05-06T01:47:04.029Z,49.30
2019-05-06T01:49:33.986Z,49.30
2019-05-06T01:52:04.079Z,49.10
2019-05-06T01:54:34.471Z,49.20
2019-05-06T01:57:04.585Z,49.10
2019-05-06T01:59:34.375Z,49.10
2019-05-06T02:02:04.792Z,49.10
2019-05-06T02:04:34.548Z,49.00
2019-05-06T02:07:04.332Z,48.90
2019-05-06T02:09:34.395Z,48.90
2019-05-06T02:12:04.813Z,49.40
2019-05-06T02:14:34.509Z,48.80
2019-05-06T02:17:04.305Z,48.80
2019-05-06T02:19:34.869Z,48.80
2019-05-06T02:22:13.633Z,48.70
2019-05-06T02:25:04.315Z,48.70
2019-05-06T02:27:34.700Z,48.80
2019-05-06T02:30:21.351Z,48.60
2019-05-06T02:33:08.794Z,48.50
2019-05-06T02:35:45.396Z,48.50
2019-05-06T02:38:30.220Z,48.50
2019-05-06T02:40:57.642Z,48.50
2019-05-06T02:43:27.308Z,48.50
2019-05-06T02:45:56.985Z,48.30
2019-05-06T02:48:37.503Z,48.30
2019-05-06T02:51:13.506Z,48.30
2019-05-06T02:53:43.247Z,48.30
2019-05-06T02:56:13.458Z,48.30
2019-05-06T02:58:43.820Z,48.30
2019-05-06T03:01:13.761Z,48.20
2019-05-06T03:03:43.897Z,48.30
2019-05-06T03:06:13.675Z,48.10
2019-05-06T03:08:43.789Z,48.10
2019-05-06T03:11:13.905Z,48.10
2019-05-06T03:13:44.139Z,48.00
2019-05-06T03:16:14.350Z,48.00
2019-05-06T03:18:44.352Z,48.00
2019-05-06T03:21:33.789Z,47.90
2019-05-06T03:24:43.399Z,48.00
2019-05-06T03:27:14.301Z,47.60
2019-05-06T03:29:44.399Z,47.70
2019-05-06T03:32:21.616Z,47.60
2019-05-06T03:35:13.638Z,47.70
2019-05-06T03:37:18.255Z,47.70
2019-05-06T03:39:49.007Z,47.60
2019-05-06T03:42:18.884Z,47.70
2019-05-06T03:44:53.220Z,47.60
2019-05-06T03:47:34.666Z,47.50
2019-05-06T03:50:05.390Z,47.50
2019-05-06T03:52:35.078Z,47.50
2019-05-06T03:55:04.813Z,47.40
2019-05-06T03:57:36.291Z,47.40
2019-05-06T04:00:06.677Z,47.40
2019-05-06T04:02:39.586Z,47.40
2019-05-06T04:05:08.238Z,47.40
2019-05-06T04:07:38.270Z,47.40
2019-05-06T04:10:08.184Z,47.30
2019-05-06T04:12:38.332Z,47.30
2019-05-06T04:15:08.648Z,47.40
2019-05-06T04:18:06.291Z,47.60
2019-05-06T04:20:54.925Z,47.60
2019-05-06T04:23:46.030Z,47.50
2019-05-06T04:26:33.085Z,47.80
2019-05-06T04:29:03.949Z,47.40
2019-05-06T04:31:34.129Z,47.50
2019-05-06T04:34:12.774Z,47.60
2019-05-06T04:36:35.382Z,47.90
2019-05-06T04:39:05.875Z,47.90
2019-05-06T04:41:35.864Z,47.50
2019-05-06T04:44:05.659Z,46.80
2019-05-06T04:46:35.461Z,46.40
2019-05-06T04:49:05.154Z,46.20
2019-05-06T04:51:36.793Z,46.30
2019-05-06T04:54:06.503Z,46.20
2019-05-06T04:56:36.429Z,46.20
2019-05-06T04:59:06.553Z,46.20
2019-05-06T05:01:36.418Z,46.20
2019-05-06T05:04:22.837Z,45.90
2019-05-06T05:06:37.610Z,46.20
2019-05-06T05:09:07.645Z,45.90
2019-05-06T05:12:02.509Z,45.90
2019-05-06T05:14:46.131Z,45.70
2019-05-06T05:17:38.788Z,45.50
2019-05-06T05:20:08.648Z,44.90
2019-05-06T05:22:38.451Z,45.00
2019-05-06T05:25:08.152Z,45.10
2019-05-06T05:27:37.908Z,45.10
2019-05-06T05:30:07.571Z,45.10
2019-05-06T05:32:37.246Z,45.30
2019-05-06T05:35:07.453Z,45.20
2019-05-06T05:37:37.224Z,46.00
2019-05-06T05:40:07.132Z,45.40
2019-05-06T05:42:58.696Z,45.70
2019-05-06T05:45:28.565Z,45.90
2019-05-06T05:48:00.136Z,46.40
2019-05-06T05:50:34.094Z,46.50
2019-05-06T05:53:03.943Z,46.40
2019-05-06T05:55:34.162Z,46.50
2019-05-06T05:58:03.994Z,46.70
2019-05-06T06:00:35.104Z,46.50
2019-05-06T06:03:07.006Z,46.60
2019-05-06T06:05:36.391Z,46.40
2019-05-06T06:08:06.157Z,46.30
2019-05-06T06:11:00.729Z,46.20
2019-05-06T06:13:32.020Z,46.10
2019-05-06T06:16:26.805Z,46.10
2019-05-06T06:19:13.921Z,46.10
2019-05-06T06:21:52.563Z,46.10
2019-05-06T06:24:28.707Z,45.80
2019-05-06T06:26:58.639Z,45.70
2019-05-06T06:29:28.803Z,45.70
2019-05-06T06:32:13.823Z,45.60
2019-05-06T06:34:48.507Z,45.60
2019-05-06T06:37:35.824Z,45.70
2019-05-06T06:40:06.257Z,45.60
2019-05-06T06:42:36.087Z,45.60
2019-05-06T06:45:06.580Z,45.40
2019-05-06T06:47:36.305Z,45.30
2019-05-06T06:50:06.036Z,45.20
2019-05-06T06:52:35.784Z,45.20
2019-05-06T06:55:05.866Z,45.10
2019-05-06T06:58:12.644Z,45.20
2019-05-06T07:00:53.928Z,45.00
2019-05-06T07:03:29.493Z,45.00
2019-05-06T07:06:09.433Z,44.80
2019-05-06T07:08:39.213Z,44.80
2019-05-06T07:11:08.857Z,44.70
2019-05-06T07:13:41.943Z,44.70
2019-05-06T07:16:12.337Z,44.60
2019-05-06T07:18:42.714Z,44.60
2019-05-06T07:21:18.448Z,44.80
2019-05-06T07:23:48.215Z,44.60
2019-05-06T07:26:20.667Z,44.50
2019-05-06T07:28:52.651Z,44.60
2019-05-06T07:31:26.537Z,44.50
2019-05-06T07:33:54.230Z,44.50
2019-05-06T07:36:24.083Z,44.50
2019-05-06T07:38:53.828Z,44.70
2019-05-06T07:41:36.211Z,44.60
2019-05-06T07:44:22.400Z,44.50
2019-05-06T07:46:57.904Z,44.50
2019-05-06T07:49:27.934Z,44.50
2019-05-06T07:51:57.723Z,44.50
2019-05-06T07:54:27.468Z,44.50
2019-05-06T07:56:57.224Z,44.20
2019-05-06T07:59:27.049Z,44.70
2019-05-06T08:01:56.744Z,45.00
2019-05-06T08:04:26.452Z,45.20
2019-05-06T08:06:56.300Z,45.30
2019-05-06T08:09:26.069Z,45.40
2019-05-06T08:11:55.783Z,45.60
2019-05-06T08:14:27.844Z,45.60
2019-05-06T08:17:04.625Z,45.60
2019-05-06T08:19:34.820Z,46.20
2019-05-06T08:22:08.240Z,45.80
2019-05-06T08:24:37.945Z,46.00
2019-05-06T08:27:07.806Z,45.80
2019-05-06T08:29:37.689Z,46.00
2019-05-06T08:32:07.298Z,45.60
2019-05-06T08:34:37.089Z,45.80
2019-05-06T08:37:25.733Z,46.00
2019-05-06T08:39:55.426Z,45.90
2019-05-06T08:42:26.032Z,46.00
2019-05-06T08:44:55.915Z,46.00
2019-05-06T08:47:25.665Z,46.10
2019-05-06T08:50:16.331Z,46.10
2019-05-06T08:53:14.019Z,45.20
2019-05-06T08:55:45.021Z,46.20
2019-05-06T08:58:22.148Z,45.90
2019-05-06T09:00:57.591Z,45.80
2019-05-06T09:03:27.429Z,45.90
2019-05-06T09:05:57.071Z,45.90
2019-05-06T09:08:26.904Z,45.90
2019-05-06T09:10:56.717Z,46.40
2019-05-06T09:13:27.064Z,45.80
2019-05-06T09:16:09.320Z,45.90
2019-05-06T09:18:39.084Z,45.70
2019-05-06T09:21:08.815Z,46.00
2019-05-06T09:23:38.532Z,45.70
2019-05-06T09:26:09.801Z,45.90
2019-05-06T09:28:58.405Z,45.80
2019-05-06T09:31:33.916Z,45.80
2019-05-06T09:34:13.026Z,45.80
2019-05-06T09:36:51.458Z,45.90
2019-05-06T09:39:14.312Z,46.00
2019-05-06T09:41:47.266Z,46.00
2019-05-06T09:44:15.522Z,45.70
2019-05-06T09:46:45.448Z,45.60
2019-05-06T09:49:22.924Z,45.70
2019-05-06T09:51:53.033Z,45.40
2019-05-06T09:54:42.774Z,45.10
2019-05-06T09:57:17.255Z,44.40
2019-05-06T09:59:47.007Z,44.00
2019-05-06T10:02:16.808Z,43.90
2019-05-06T10:04:46.673Z,43.90
2019-05-06T10:07:16.428Z,43.90
2019-05-06T10:09:46.150Z,44.00
2019-05-06T10:12:15.928Z,44.00
2019-05-06T10:14:45.844Z,44.00
2019-05-06T10:17:16.060Z,43.90
2019-05-06T10:19:45.773Z,43.80
2019-05-06T10:22:15.512Z,43.90
2019-05-06T10:24:45.222Z,43.80
2019-05-06T10:27:15.028Z,43.90
2019-05-06T10:29:52.176Z,43.70
2019-05-06T10:32:33.799Z,43.80
2019-05-06T10:35:03.519Z,43.70
2019-05-06T10:37:58.544Z,43.60
2019-05-06T10:40:32.957Z,43.70
2019-05-06T10:43:24.404Z,43.50
2019-05-06T10:45:54.196Z,43.50
2019-05-06T10:48:23.984Z,43.40
2019-05-06T10:50:56.921Z,43.40
2019-05-06T10:53:26.678Z,43.50
2019-05-06T10:55:58.212Z,43.40
2019-05-06T10:58:27.988Z,43.30
2019-05-06T11:01:12.525Z,43.30
2019-05-06T11:03:42.180Z,43.30
2019-05-06T11:06:13.168Z,43.40
2019-05-06T11:08:43.113Z,43.30
2019-05-06T11:11:19.989Z,43.10
2019-05-06T11:13:44.167Z,43.20
2019-05-06T11:16:16.923Z,43.40
2019-05-06T11:18:45.455Z,43.30
2019-05-06T11:21:15.169Z,43.60
2019-05-06T11:23:44.893Z,43.40
2019-05-06T11:26:14.807Z,43.30
2019-05-06T11:28:52.118Z,43.20
2019-05-06T11:31:35.612Z,43.10
2019-05-06T11:34:36.436Z,43.20
2019-05-06T11:37:23.992Z,43.10
2019-05-06T11:39:53.912Z,43.10
2019-05-06T11:42:31.724Z,43.10
2019-05-06T11:44:55.330Z,43.10
2019-05-06T11:47:25.123Z,43.00
2019-05-06T11:49:57.028Z,43.00
2019-05-06T11:52:26.910Z,43.10
2019-05-06T11:54:56.772Z,43.00
2019-05-06T11:57:26.525Z,43.00
2019-05-06T11:59:56.261Z,42.90
2019-05-06T12:02:27.217Z,42.90
2019-05-06T12:04:57.055Z,42.70
2019-05-06T12:07:27.127Z,42.70
2019-05-06T12:09:56.931Z,42.60
2019-05-06T12:12:26.783Z,42.50
2019-05-06T12:14:56.648Z,42.50
2019-05-06T12:17:27.364Z,42.50
2019-05-06T12:19:57.406Z,42.80
2019-05-06T12:22:36.032Z,42.80
2019-05-06T12:25:11.418Z,42.80
2019-05-06T12:27:45.139Z,43.00
2019-05-06T12:30:22.763Z,43.20
2019-05-06T12:32:57.329Z,43.20
2019-05-06T12:35:27.064Z,42.80
2019-05-06T12:37:58.512Z,43.60
2019-05-06T12:40:28.297Z,43.10
2019-05-06T12:43:16.876Z,43.10
2019-05-06T12:45:48.075Z,43.00
2019-05-06T12:48:29.742Z,43.80
2019-05-06T12:51:03.106Z,44.10
2019-05-06T12:53:32.963Z,44.20
2019-05-06T12:56:03.262Z,44.40
2019-05-06T12:58:33.239Z,43.90
2019-05-06T13:01:04.182Z,42.80
2019-05-06T13:03:35.340Z,42.80
2019-05-06T13:06:07.544Z,43.60
2019-05-06T13:08:56.047Z,43.60
2019-05-06T13:11:08.101Z,43.00
2019-05-06T13:13:52.501Z,44.00
2019-05-06T13:16:09.341Z,43.90
2019-05-06T13:18:39.242Z,44.30
2019-05-06T13:21:09.129Z,45.10
2019-05-06T13:23:45.668Z,44.40
2019-05-06T13:26:15.512Z,42.70
2019-05-06T13:28:49.532Z,43.00
2019-05-06T13:31:21.521Z,43.80
2019-05-06T13:34:09.872Z,43.70
2019-05-06T13:36:42.594Z,44.10
2019-05-06T13:39:15.002Z,43.30
2019-05-06T13:41:42.565Z,44.10
2019-05-06T13:44:16.557Z,44.40
2019-05-06T13:46:54.031Z,43.40
2019-05-06T13:50:02.954Z,43.50
2019-05-06T13:52:38.082Z,44.00
2019-05-06T13:55:07.927Z,44.50
2019-05-06T13:57:39.546Z,44.00
2019-05-06T14:00:09.175Z,44.00
2019-05-06T14:02:48.041Z,44.10
2019-05-06T14:05:17.999Z,44.00
2019-05-06T14:07:47.932Z,44.00
2019-05-06T14:10:17.936Z,44.00
2019-05-06T14:12:47.796Z,44.10
2019-05-06T14:15:17.589Z,44.20
2019-05-06T14:17:47.708Z,44.10
2019-05-06T14:20:17.937Z,44.10
2019-05-06T14:22:47.760Z,44.60
2019-05-06T14:25:43.405Z,44.60
2019-05-06T14:28:28.200Z,43.00
2019-05-06T14:31:04.640Z,44.40
2019-05-06T14:33:34.356Z,44.60
2019-05-06T14:36:04.286Z,45.40
2019-05-06T14:38:34.101Z,45.40
2019-05-06T14:41:16.583Z,45.70
2019-05-06T14:43:46.453Z,45.90
2019-05-06T14:46:16.377Z,46.10
2019-05-06T14:48:46.287Z,46.20
2019-05-06T14:51:16.298Z,46.30
2019-05-06T14:53:46.173Z,46.40
2019-05-06T14:56:32.037Z,46.40
2019-05-06T14:59:06.080Z,46.60
2019-05-06T15:01:36.281Z,46.70
2019-05-06T15:04:06.253Z,46.70
2019-05-06T15:06:36.072Z,46.70
2019-05-06T15:09:07.925Z,46.70
2019-05-06T15:11:37.715Z,46.70
2019-05-06T15:14:07.459Z,46.80
2019-05-06T15:16:37.268Z,46.90
2019-05-06T15:19:07.024Z,46.80
2019-05-06T15:21:39.268Z,46.80
2019-05-06T15:24:09.066Z,46.60
2019-05-06T15:26:39.066Z,46.80
2019-05-06T15:29:08.814Z,46.60
2019-05-06T15:31:52.889Z,46.70
2019-05-06T15:34:29.208Z,46.60
2019-05-06T15:37:09.577Z,46.60
2019-05-06T15:39:39.274Z,46.70
2019-05-06T15:42:09.135Z,46.80
2019-05-06T15:44:39.083Z,46.90
2019-05-06T15:47:09.089Z,46.70
2019-05-06T15:49:38.858Z,46.70
2019-05-06T15:52:08.828Z,46.90
2019-05-06T15:54:39.475Z,46.70
2019-05-06T15:57:09.295Z,46.70
2019-05-06T15:59:41.254Z,47.10
2019-05-06T16:02:10.480Z,46.90
2019-05-06T16:04:40.186Z,46.90
2019-05-06T16:07:12.524Z,46.60
2019-05-06T16:09:42.953Z,46.70
2019-05-06T16:12:13.012Z,46.80
2019-05-06T16:14:42.728Z,46.80
2019-05-06T16:17:15.045Z,46.80
2019-05-06T16:19:44.263Z,46.90
2019-05-06T16:22:14.377Z,46.90
2019-05-06T16:24:48.809Z,46.90
2019-05-06T16:27:18.572Z,47.10
2019-05-06T16:29:48.423Z,47.20
2019-05-06T16:32:18.303Z,47.40
2019-05-06T16:34:48.100Z,47.50
2019-05-06T16:37:17.881Z,47.80
2019-05-06T16:39:47.746Z,47.80
2019-05-06T16:42:17.573Z,47.70
2019-05-06T16:44:47.312Z,47.80
2019-05-06T16:47:34.851Z,47.60
2019-05-06T16:50:05.253Z,48.00
2019-05-06T16:52:35.108Z,48.00
2019-05-06T16:55:05.752Z,48.00
2019-05-06T16:57:36.296Z,48.10
2019-05-06T17:00:09.051Z,48.10
2019-05-06T17:02:57.057Z,48.30
2019-05-06T17:05:38.183Z,48.40
2019-05-06T17:08:08.175Z,48.00
2019-05-06T17:10:40.202Z,47.70
2019-05-06T17:13:09.673Z,47.30
2019-05-06T17:15:39.569Z,47.50
2019-05-06T17:18:09.529Z,47.00
2019-05-06T17:20:39.968Z,46.80
2019-05-06T17:23:09.702Z,46.90
2019-05-06T17:25:39.640Z,47.10
2019-05-06T17:28:33.554Z,47.10
2019-05-06T17:31:13.818Z,47.20
2019-05-06T17:33:43.781Z,47.20
2019-05-06T17:36:15.124Z,47.10
2019-05-06T17:38:47.458Z,47.00
2019-05-06T17:41:17.444Z,46.90
2019-05-06T17:43:47.201Z,46.90
2019-05-06T17:46:22.129Z,47.10
2019-05-06T17:49:23.028Z,47.00
2019-05-06T17:52:02.990Z,47.00
2019-05-06T17:54:32.629Z,47.20
2019-05-06T17:57:04.686Z,47.00
2019-05-06T17:59:37.343Z,46.80
2019-05-06T18:02:09.640Z,46.90
2019-05-06T18:04:39.512Z,46.90
2019-05-06T18:07:09.299Z,47.10
2019-05-06T18:09:39.267Z,47.30
2019-05-06T18:12:08.972Z,47.60
2019-05-06T18:14:38.704Z,48.20
2019-05-06T18:17:12.295Z,48.50
2019-05-06T18:19:41.698Z,48.60
2019-05-06T18:22:13.146Z,53.00
2019-05-06T18:24:43.062Z,53.90
2019-05-06T18:27:13.287Z,53.90
2019-05-06T18:29:43.225Z,54.20
2019-05-06T18:32:14.115Z,54.80
2019-05-06T18:34:43.914Z,54.30
2019-05-06T18:37:13.707Z,54.30
2019-05-06T18:39:43.468Z,54.40
2019-05-06T18:42:19.567Z,54.50
2019-05-06T18:44:44.708Z,56.00
2019-05-06T18:47:14.535Z,55.00
2019-05-06T18:49:44.245Z,54.70
2019-05-06T18:52:14.168Z,54.50
2019-05-06T18:54:43.950Z,54.60
2019-05-06T18:57:13.789Z,54.60
2019-05-06T18:59:43.676Z,54.60
2019-05-06T19:02:14.505Z,54.50
2019-05-06T19:04:58.555Z,54.80
2019-05-06T19:07:28.517Z,54.60
2019-05-06T19:10:03.185Z,54.50
2019-05-06T19:12:40.587Z,54.50
2019-05-06T19:15:05.077Z,54.90
2019-05-06T19:17:34.944Z,55.10
2019-05-06T19:20:04.856Z,55.90
2019-05-06T19:22:35.062Z,56.10
2019-05-06T19:25:05.689Z,55.80
2019-05-06T19:27:35.698Z,55.80
2019-05-06T19:30:05.576Z,56.10
2019-05-06T19:32:35.351Z,56.10
2019-05-06T19:35:05.044Z,56.40
2019-05-06T19:37:34.789Z,56.40
2019-05-06T19:40:05.120Z,56.40
2019-05-06T19:42:46.229Z,56.50
2019-05-06T19:45:06.654Z,56.50
2019-05-06T19:47:36.521Z,56.60
2019-05-06T19:50:06.539Z,56.60
2019-05-06T19:52:36.473Z,56.50
2019-05-06T19:55:07.305Z,56.50
2019-05-06T19:57:37.168Z,56.40
2019-05-06T20:00:06.973Z,56.40
2019-05-06T20:02:38.160Z,56.50
2019-05-06T20:05:14.840Z,56.40
2019-05-06T20:07:52.168Z,56.70
2019-05-06T20:10:46.566Z,56.60
2019-05-06T20:13:16.230Z,56.60
2019-05-06T20:15:45.876Z,56.50
2019-05-06T20:18:16.625Z,56.40
2019-05-06T20:20:46.263Z,56.10
2019-05-06T20:23:16.011Z,56.10
2019-05-06T20:25:46.062Z,56.00
2019-05-06T20:28:15.809Z,55.90
2019-05-06T20:30:45.503Z,56.00
2019-05-06T20:33:15.261Z,55.70
2019-05-06T20:35:45.281Z,55.50
2019-05-06T20:38:14.968Z,55.50
2019-05-06T20:40:44.634Z,55.50
2019-05-06T20:43:20.360Z,55.40
2019-05-06T20:45:45.632Z,55.30
2019-05-06T20:48:15.344Z,55.20
2019-05-06T20:50:45.105Z,55.20
2019-05-06T20:53:14.741Z,55.20
2019-05-06T20:55:44.392Z,55.10
2019-05-06T20:58:14.137Z,55.20
2019-05-06T21:00:43.765Z,55.20
2019-05-06T21:03:13.490Z,55.00
2019-05-06T21:05:43.676Z,55.00
2019-05-06T21:08:14.444Z,55.00
2019-05-06T21:10:44.698Z,55.00
2019-05-06T21:13:21.999Z,55.00
2019-05-06T21:15:45.654Z,54.90
2019-05-06T21:18:15.476Z,54.90
2019-05-06T21:20:45.107Z,54.80
2019-05-06T21:23:14.816Z,54.70
2019-05-06T21:25:44.536Z,54.80
2019-05-06T21:28:14.337Z,54.70
2019-05-06T21:30:44.018Z,54.70
2019-05-06T21:33:13.656Z,54.60
2019-05-06T21:35:43.340Z,54.50
2019-05-06T21:38:13.002Z,54.70
2019-05-06T21:40:43.415Z,54.50
2019-05-06T21:43:13.348Z,54.40
2019-05-06T21:45:42.996Z,54.30
2019-05-06T21:48:13.572Z,54.50
2019-05-06T21:50:43.580Z,54.50
2019-05-06T21:53:14.739Z,54.50
2019-05-06T21:55:44.598Z,54.50
2019-05-06T21:58:14.481Z,54.50
2019-05-06T22:00:49.005Z,54.30
2019-05-06T22:03:18.676Z,54.50
2019-05-06T22:05:48.310Z,54.50
2019-05-06T22:08:18.013Z,54.50
2019-05-06T22:10:47.671Z,54.50
2019-05-06T22:13:17.314Z,54.40
2019-05-06T22:15:46.947Z,54.50
2019-05-06T22:18:16.665Z,55.00
2019-05-06T22:21:03.919Z,54.50
2019-05-06T22:23:53.424Z,54.50
2019-05-06T22:26:23.452Z,54.50
2019-05-06T22:28:53.281Z,54.50
2019-05-06T22:31:24.294Z,54.40
2019-05-06T22:33:54.691Z,54.40
2019-05-06T22:36:24.405Z,54.40
2019-05-06T22:38:54.168Z,54.50
2019-05-06T22:41:25.434Z,54.40
2019-05-06T22:43:55.144Z,54.40
2019-05-06T22:46:24.832Z,54.40
2019-05-06T22:48:54.806Z,54.40
2019-05-06T22:51:24.605Z,54.40
2019-05-06T22:53:54.283Z,54.50
2019-05-06T22:56:24.519Z,54.50
2019-05-06T22:58:54.217Z,54.50
2019-05-06T23:01:54.224Z,54.70
2019-05-06T23:04:25.002Z,54.70
2019-05-06T23:06:54.662Z,54.80
2019-05-06T23:09:24.946Z,54.70
2019-05-06T23:11:54.881Z,54.80
2019-05-06T23:14:31.351Z,54.70
2019-05-06T23:16:55.879Z,54.80
2019-05-06T23:19:25.572Z,54.60
2019-05-06T23:21:55.293Z,54.70
2019-05-06T23:24:25.287Z,54.70
2019-05-06T23:26:54.988Z,54.80
2019-05-06T23:29:24.660Z,54.90
2019-05-06T23:31:54.304Z,54.90
2019-05-06T23:34:24.217Z,55.00
2019-05-06T23:37:27.517Z,54.80
2019-05-06T23:40:36.205Z,54.80
2019-05-06T23:43:42.750Z,54.90
2019-05-06T23:46:48.882Z,55.00
2019-05-06T23:49:54.278Z,55.10
2019-05-06T23:53:00.184Z,55.30
2019-05-06T23:56:05.677Z,55.20
2019-05-06T23:58:35.361Z,55.40
